createdAt,value
2023-05-21T00:00:53.922Z,19.38
2023-05-21T00:03:56.132Z,21.00
2023-05-21T00:06:58.844Z,19.48
2023-05-21T00:10:00.960Z,20.73
2023-05-21T00:13:03.120Z,21.08
2023-05-21T00:16:05.792Z,20.60
2023-05-21T00:19:08.341Z,18.95
2023-05-21T00:22:10.644Z,18.88
2023-05-21T00:25:13.070Z,22.55
2023-05-21T00:28:15.190Z,17.70
2023-05-21T00:31:19.158Z,19.17
2023-05-21T00:34:21.370Z,22.27
2023-05-21T00:37:24.701Z,22.05
2023-05-21T00:40:26.852Z,18.50
2023-05-21T00:43:29.357Z,21.38
2023-05-21T00:46:31.602Z,19.30
2023-05-21T00:49:33.864Z,18.38
2023-05-21T00:52:41.966Z,22.08
2023-05-21T00:55:44.907Z,21.03
2023-05-21T00:58:47.995Z,19.40
2023-05-21T01:01:56.213Z,21.85
2023-05-21T01:05:00.405Z,22.60
2023-05-21T01:08:03.168Z,22.75
2023-05-21T01:11:07.125Z,19.55
2023-05-21T01:14:12.773Z,22.02
2023-05-21T01:17:15.755Z,19.92
2023-05-21T01:20:20.227Z,20.13
2023-05-21T01:23:22.437Z,40.53
2023-05-21T01:26:26.116Z,23.70
2023-05-21T01:29:28.224Z,23.95
2023-05-21T01:32:34.386Z,24.00
2023-05-21T01:35:41.876Z,21.55
2023-05-21T01:39:02.224Z,20.38
2023-05-21T01:42:09.389Z,20.55
2023-05-21T01:45:14.586Z,24.48
2023-05-21T01:48:18.738Z,21.05
2023-05-21T01:51:21.115Z,24.33
2023-05-21T01:54:24.226Z,24.50
2023-05-21T01:57:26.396Z,19.77
2023-05-21T02:00:29.568Z,20.65
2023-05-21T02:03:32.006Z,19.58
2023-05-21T02:06:35.974Z,21.23
2023-05-21T02:09:38.238Z,22.38
2023-05-21T02:12:40.346Z,20.25
2023-05-21T02:15:42.725Z,21.38
2023-05-21T02:18:44.892Z,19.98
2023-05-21T02:21:47.057Z,19.08
2023-05-21T02:24:49.426Z,19.73
2023-05-21T02:27:53.734Z,19.83
2023-05-21T02:30:56.749Z,20.58
2023-05-21T02:33:58.927Z,19.25
2023-05-21T02:37:01.776Z,19.58
2023-05-21T02:40:06.099Z,18.63
2023-05-21T02:43:09.317Z,23.50
2023-05-21T02:46:11.495Z,21.98
2023-05-21T02:49:13.735Z,21.13
2023-05-21T02:52:16.101Z,20.27
2023-05-21T02:55:18.218Z,22.48
2023-05-21T02:58:23.514Z,26.17
2023-05-21T03:01:25.955Z,26.60
2023-05-21T03:04:28.533Z,20.80
2023-05-21T03:07:30.817Z,23.40
2023-05-21T03:10:32.997Z,21.92
2023-05-21T03:13:35.181Z,23.73
2023-05-21T03:16:38.146Z,24.10
2023-05-21T03:19:41.968Z,25.08
2023-05-21T03:22:44.946Z,21.75
2023-05-21T03:25:47.092Z,22.42
2023-05-21T03:28:49.169Z,27.83
2023-05-21T03:31:54.008Z,24.48
2023-05-21T03:34:56.214Z,22.70
2023-05-21T03:37:58.294Z,24.95
2023-05-21T03:41:00.508Z,25.17
2023-05-21T03:44:02.646Z,25.85
2023-05-21T03:47:04.874Z,26.13
2023-05-21T03:50:07.766Z,28.67
2023-05-21T03:53:10.966Z,26.83
2023-05-21T03:56:13.200Z,26.80
2023-05-21T03:59:15.289Z,37.95
2023-05-21T04:02:17.577Z,29.80
2023-05-21T04:05:19.845Z,28.55
2023-05-21T04:08:22.086Z,26.65
2023-05-21T04:11:24.171Z,26.50
2023-05-21T04:14:26.498Z,31.08
2023-05-21T04:17:28.768Z,32.70
2023-05-21T04:20:30.945Z,31.38
2023-05-21T04:23:33.701Z,30.17
2023-05-21T04:26:35.787Z,33.88
2023-05-21T04:29:42.633Z,30.30
2023-05-21T04:32:45.992Z,26.10
2023-05-21T04:35:50.684Z,25.50
2023-05-21T04:38:53.468Z,27.35
2023-05-21T04:41:56.658Z,24.58
2023-05-21T04:44:59.554Z,21.52
2023-05-21T04:48:02.998Z,18.70
2023-05-21T04:51:07.921Z,15.45
2023-05-21T04:54:10.090Z,16.67
2023-05-21T04:57:12.174Z,14.75
2023-05-21T05:00:14.539Z,14.75
2023-05-21T05:03:16.740Z,14.25
2023-05-21T05:06:19.020Z,15.07
2023-05-21T05:09:24.139Z,11.73
2023-05-21T05:12:26.285Z,11.98
2023-05-21T05:15:28.395Z,12.63
2023-05-21T05:18:30.518Z,15.10
2023-05-21T05:21:33.279Z,12.68
2023-05-21T05:24:35.428Z,11.25
2023-05-21T05:27:38.581Z,12.13
2023-05-21T05:30:41.031Z,17.52
2023-05-21T05:33:43.137Z,12.65
2023-05-21T05:36:45.304Z,10.13
2023-05-21T05:39:47.423Z,14.88
2023-05-21T05:42:49.633Z,10.90
2023-05-21T05:45:51.735Z,11.50
2023-05-21T05:48:53.814Z,11.82
2023-05-21T05:51:56.728Z,10.57
2023-05-21T05:54:58.880Z,10.75
2023-05-21T05:58:01.030Z,11.80
2023-05-21T06:01:03.181Z,12.45
2023-05-21T06:04:05.601Z,9.23
2023-05-21T06:07:07.712Z,12.00
2023-05-21T06:10:10.333Z,9.00
2023-05-21T06:13:12.395Z,10.40
2023-05-21T06:16:16.000Z,8.90
2023-05-21T06:19:18.241Z,9.40
2023-05-21T06:22:20.464Z,8.35
2023-05-21T06:25:22.782Z,10.65
2023-05-21T06:28:24.893Z,9.68
2023-05-21T06:31:27.072Z,8.05
2023-05-21T06:34:29.199Z,8.52
2023-05-21T06:37:31.310Z,9.02
2023-05-21T06:40:34.263Z,7.32
2023-05-21T06:43:36.416Z,9.82
2023-05-21T06:46:38.972Z,9.00
2023-05-21T06:49:41.086Z,8.82
2023-05-21T06:52:43.226Z,9.23
2023-05-21T06:55:45.467Z,11.10
2023-05-21T06:58:47.611Z,9.48
2023-05-21T07:01:49.727Z,11.90
2023-05-21T07:04:53.724Z,8.73
2023-05-21T07:07:55.760Z,10.93
2023-05-21T07:10:58.099Z,9.07
2023-05-21T07:14:01.806Z,8.10
2023-05-21T07:17:04.062Z,9.40
2023-05-21T07:20:07.885Z,8.27
2023-05-21T07:23:09.961Z,8.05
2023-05-21T07:26:12.415Z,8.70
2023-05-21T07:29:14.552Z,8.52
2023-05-21T07:32:16.779Z,10.15
2023-05-21T07:35:19.176Z,7.90
2023-05-21T07:38:21.305Z,10.30
2023-05-21T07:41:23.315Z,11.00
2023-05-21T07:44:25.487Z,11.80
2023-05-21T07:47:27.572Z,9.30
2023-05-21T07:50:29.677Z,7.28
2023-05-21T07:53:32.576Z,9.23
2023-05-21T07:56:34.745Z,9.55
2023-05-21T07:59:36.878Z,8.02
2023-05-21T08:02:39.099Z,8.27
2023-05-21T08:05:41.271Z,9.18
2023-05-21T08:08:43.443Z,9.88
2023-05-21T08:11:46.357Z,9.10
2023-05-21T08:14:48.402Z,7.80
2023-05-21T08:17:50.850Z,7.65
2023-05-21T08:20:53.118Z,9.50
2023-05-21T08:23:55.207Z,9.02
2023-05-21T08:26:57.319Z,8.40
2023-05-21T08:29:59.509Z,9.88
2023-05-21T08:33:02.339Z,9.00
2023-05-21T08:36:06.146Z,11.82
2023-05-21T08:39:08.323Z,10.02
2023-05-21T08:42:35.729Z,8.07
2023-05-21T08:45:42.473Z,8.98
2023-05-21T08:48:45.234Z,7.65
2023-05-21T08:51:47.871Z,11.10
2023-05-21T08:54:51.276Z,10.82
2023-05-21T08:57:54.506Z,7.88
2023-05-21T09:00:57.645Z,10.00
2023-05-21T09:04:12.369Z,7.88
2023-05-21T09:07:24.223Z,7.43
2023-05-21T09:10:34.888Z,10.25
2023-05-21T09:13:39.148Z,10.13
2023-05-21T09:16:41.551Z,8.00
2023-05-21T09:20:11.179Z,7.78
2023-05-21T09:23:17.984Z,7.60
2023-05-21T09:26:22.003Z,8.75
2023-05-21T09:29:26.146Z,11.48
2023-05-21T09:32:28.343Z,9.82
2023-05-21T09:35:30.433Z,8.23
2023-05-21T09:38:34.949Z,9.55
2023-05-21T09:41:38.003Z,9.15
2023-05-21T09:44:43.331Z,10.50
2023-05-21T09:47:46.808Z,13.65
2023-05-21T09:50:49.427Z,9.68
2023-05-21T09:53:53.225Z,8.57
2023-05-21T09:56:55.469Z,11.07
2023-05-21T09:59:57.574Z,10.63
2023-05-21T10:03:09.648Z,9.50
2023-05-21T10:06:13.204Z,9.82
2023-05-21T10:09:18.964Z,9.80
2023-05-21T10:12:24.413Z,8.95
2023-05-21T10:15:28.225Z,9.43
2023-05-21T10:18:32.378Z,9.02
2023-05-21T10:21:34.954Z,9.75
2023-05-21T10:24:38.183Z,8.90
2023-05-21T10:27:41.663Z,8.23
2023-05-21T10:30:44.667Z,12.68
2023-05-21T10:33:47.298Z,10.07
2023-05-21T10:36:50.987Z,7.10
2023-05-21T10:39:53.775Z,10.55
2023-05-21T10:43:13.538Z,7.68
2023-05-21T10:46:33.663Z,11.25
2023-05-21T10:49:48.553Z,11.00
2023-05-21T10:53:10.690Z,8.68
2023-05-21T10:56:22.137Z,10.57
2023-05-21T10:59:43.212Z,9.65
2023-05-21T11:02:46.191Z,10.23
2023-05-21T11:05:52.559Z,10.60
2023-05-21T11:08:55.781Z,10.43
2023-05-21T11:12:04.736Z,10.82
2023-05-21T11:15:07.561Z,11.38
2023-05-21T11:18:09.779Z,8.60
2023-05-21T11:21:21.120Z,7.43
2023-05-21T11:24:25.616Z,9.35
2023-05-21T11:27:39.012Z,9.05
2023-05-21T11:30:41.390Z,9.60
2023-05-21T11:33:43.551Z,7.25
2023-05-21T11:36:49.351Z,9.98
2023-05-21T11:39:51.908Z,9.20
2023-05-21T11:42:55.926Z,8.73
2023-05-21T11:45:59.123Z,10.05
2023-05-21T11:49:02.705Z,10.35
2023-05-21T11:52:07.004Z,13.10
2023-05-21T11:55:11.334Z,11.50
2023-05-21T11:58:15.065Z,10.82
2023-05-21T12:01:26.671Z,11.68
2023-05-21T12:04:38.347Z,11.70
2023-05-21T12:07:40.564Z,9.63
2023-05-21T12:10:44.437Z,9.85
2023-05-21T12:13:50.911Z,10.70
2023-05-21T12:16:53.099Z,12.88
2023-05-21T12:19:56.941Z,11.30
2023-05-21T12:22:59.297Z,10.25
2023-05-21T12:26:01.590Z,9.85
2023-05-21T12:29:05.838Z,14.68
2023-05-21T12:32:09.695Z,12.88
2023-05-21T12:35:22.742Z,13.68
2023-05-21T12:38:31.349Z,10.48
2023-05-21T12:41:33.463Z,13.50
2023-05-21T12:44:36.854Z,44.10
2023-05-21T12:47:39.198Z,11.63
2023-05-21T12:50:42.264Z,10.05
2023-05-21T12:53:44.534Z,14.73
2023-05-21T12:56:46.873Z,11.27
2023-05-21T13:00:00.250Z,10.02
2023-05-21T13:03:04.677Z,11.73
2023-05-21T13:06:08.526Z,14.45
2023-05-21T13:09:11.028Z,11.25
2023-05-21T13:12:13.425Z,12.77
2023-05-21T13:15:15.650Z,11.38
2023-05-21T13:18:17.924Z,12.95
2023-05-21T13:21:20.143Z,14.07
2023-05-21T13:24:22.411Z,12.70
2023-05-21T13:27:24.426Z,13.55
2023-05-21T13:30:26.702Z,13.45
2023-05-21T13:33:28.950Z,11.10
2023-05-21T13:36:31.371Z,14.63
2023-05-21T13:39:33.622Z,12.70
2023-05-21T13:42:37.794Z,12.02
2023-05-21T13:45:39.897Z,10.95
2023-05-21T13:48:43.332Z,13.45
2023-05-21T13:51:45.498Z,12.43
2023-05-21T13:54:48.135Z,12.07
2023-05-21T13:57:50.375Z,12.70
2023-05-21T14:00:52.548Z,14.15
2023-05-21T14:03:54.881Z,12.98
2023-05-21T14:06:57.048Z,12.65
2023-05-21T14:09:59.182Z,13.93
2023-05-21T14:13:11.913Z,12.07
2023-05-21T14:16:18.573Z,13.35
2023-05-21T14:19:20.739Z,19.38
2023-05-21T14:22:23.012Z,18.40
2023-05-21T14:25:25.157Z,11.80
2023-05-21T14:28:27.360Z,12.80
2023-05-21T14:31:29.526Z,12.35
2023-05-21T14:34:31.646Z,12.73
2023-05-21T14:37:33.918Z,12.50
2023-05-21T14:40:35.973Z,15.25
2023-05-21T14:43:37.998Z,11.65
2023-05-21T14:46:40.288Z,14.27
2023-05-21T14:49:42.447Z,12.15
2023-05-21T14:52:45.137Z,11.13
2023-05-21T14:55:47.260Z,10.43
2023-05-21T14:58:49.517Z,11.70
2023-05-21T15:01:51.880Z,11.90
2023-05-21T15:04:54.004Z,12.30
2023-05-21T15:07:57.129Z,9.38
2023-05-21T15:10:59.235Z,13.65
2023-05-21T15:14:01.349Z,13.73
2023-05-21T15:17:03.592Z,10.65
2023-05-21T15:20:06.554Z,12.52
2023-05-21T15:23:16.634Z,12.50
2023-05-21T15:26:19.228Z,12.15
2023-05-21T15:29:21.390Z,11.30
2023-05-21T15:32:23.587Z,9.20
2023-05-21T15:35:25.831Z,11.27
2023-05-21T15:38:28.159Z,9.43
2023-05-21T15:41:30.799Z,14.23
2023-05-21T15:44:32.912Z,10.98
2023-05-21T15:47:35.182Z,9.60
2023-05-21T15:50:38.208Z,11.18
2023-05-21T15:53:40.310Z,10.30
2023-05-21T15:56:44.620Z,12.07
2023-05-21T15:59:46.666Z,12.10
2023-05-21T16:02:48.802Z,11.70
2023-05-21T16:05:51.022Z,9.65
2023-05-21T16:08:53.503Z,10.50
2023-05-21T16:11:55.862Z,12.13
2023-05-21T16:14:57.951Z,11.68
2023-05-21T16:18:00.235Z,9.98
2023-05-21T16:21:02.417Z,10.43
2023-05-21T16:24:04.887Z,12.05
2023-05-21T16:27:07.202Z,12.85
2023-05-21T16:30:09.632Z,10.07
2023-05-21T16:33:12.554Z,10.50
2023-05-21T16:36:16.304Z,11.48
2023-05-21T16:39:19.620Z,11.38
2023-05-21T16:42:21.936Z,32.38
2023-05-21T16:45:24.365Z,10.18
2023-05-21T16:48:26.485Z,12.80
2023-05-21T16:51:28.638Z,8.40
2023-05-21T16:54:30.771Z,13.82
2023-05-21T16:57:32.834Z,13.68
2023-05-21T17:00:35.540Z,13.95
2023-05-21T17:03:38.303Z,10.23
2023-05-21T17:06:41.283Z,13.52
2023-05-21T17:09:43.487Z,12.60
2023-05-21T17:12:45.953Z,10.88
2023-05-21T17:15:48.240Z,8.85
2023-05-21T17:18:50.936Z,14.02
2023-05-21T17:21:55.439Z,13.50
2023-05-21T17:24:58.682Z,9.93
2023-05-21T17:28:00.924Z,11.75
2023-05-21T17:31:03.629Z,11.75
2023-05-21T17:34:05.806Z,9.68
2023-05-21T17:37:07.853Z,12.05
2023-05-21T17:40:10.491Z,11.82
2023-05-21T17:43:12.647Z,10.80
2023-05-21T17:46:17.557Z,10.75
2023-05-21T17:49:19.729Z,11.32
2023-05-21T17:52:21.854Z,11.52
2023-05-21T17:55:23.988Z,10.27
2023-05-21T17:58:26.128Z,12.13
2023-05-21T18:01:28.538Z,11.23
2023-05-21T18:04:31.265Z,13.30
2023-05-21T18:07:33.664Z,14.70
2023-05-21T18:10:36.015Z,12.45
2023-05-21T18:13:38.151Z,13.60
2023-05-21T18:16:41.171Z,14.98
2023-05-21T18:19:43.695Z,12.35
2023-05-21T18:22:46.787Z,13.80
2023-05-21T18:25:49.108Z,11.45
2023-05-21T18:28:52.286Z,19.75
2023-05-21T18:31:55.399Z,13.32
2023-05-21T18:34:58.600Z,11.20
2023-05-21T18:38:01.605Z,11.80
2023-05-21T18:41:05.163Z,12.23
2023-05-21T18:44:08.229Z,13.13
2023-05-21T18:47:12.372Z,12.52
2023-05-21T18:50:15.572Z,14.10
2023-05-21T18:53:19.412Z,14.15
2023-05-21T18:56:22.653Z,16.73
2023-05-21T18:59:27.278Z,14.20
2023-05-21T19:02:30.959Z,14.65
2023-05-21T19:05:35.027Z,16.23
2023-05-21T19:08:39.073Z,13.50
2023-05-21T19:11:42.702Z,15.25
2023-05-21T19:14:46.252Z,17.52
2023-05-21T19:17:49.431Z,15.40
2023-05-21T19:20:53.026Z,16.48
2023-05-21T19:23:56.737Z,14.38
2023-05-21T19:27:02.211Z,15.32
2023-05-21T19:30:05.988Z,20.15
2023-05-21T19:33:09.189Z,14.40
2023-05-21T19:36:12.610Z,16.35
2023-05-21T19:39:16.926Z,18.92
2023-05-21T19:42:21.583Z,15.60
2023-05-21T19:45:25.472Z,16.95
2023-05-21T19:48:28.739Z,19.02
2023-05-21T19:51:31.978Z,14.70
2023-05-21T19:54:34.952Z,16.67
2023-05-21T19:57:39.813Z,21.08
2023-05-21T20:00:46.740Z,22.33
2023-05-21T20:03:49.988Z,18.25
2023-05-21T20:06:52.931Z,23.73
2023-05-21T20:09:55.608Z,14.38
2023-05-21T20:12:58.074Z,13.82
2023-05-21T20:16:00.250Z,10.27
2023-05-21T20:19:03.894Z,11.52
2023-05-21T20:22:06.224Z,10.32
2023-05-21T20:25:09.189Z,8.63
2023-05-21T20:28:12.176Z,15.23
2023-05-21T20:31:14.531Z,11.63
2023-05-21T20:34:17.762Z,11.23
2023-05-21T20:37:21.714Z,10.88
2023-05-21T20:40:23.948Z,11.10
2023-05-21T20:43:26.106Z,13.20
2023-05-21T20:46:28.203Z,11.77
2023-05-21T20:49:33.214Z,11.70
2023-05-21T20:52:36.291Z,12.77
2023-05-21T20:55:38.699Z,9.90
2023-05-21T20:58:40.830Z,12.27
2023-05-21T21:01:43.039Z,13.02
2023-05-21T21:04:49.104Z,13.68
2023-05-21T21:07:55.461Z,12.77
2023-05-21T21:10:58.237Z,12.90
2023-05-21T21:14:02.589Z,13.00
2023-05-21T21:17:04.783Z,9.95
2023-05-21T21:20:07.725Z,12.95
2023-05-21T21:23:09.892Z,12.55
2023-05-21T21:26:11.990Z,9.35
2023-05-21T21:29:14.111Z,12.63
2023-05-21T21:32:16.392Z,12.82
2023-05-21T21:35:18.630Z,17.17
2023-05-21T21:38:20.765Z,14.27
2023-05-21T21:41:23.174Z,13.55
2023-05-21T21:44:25.439Z,13.15
2023-05-21T21:47:27.591Z,13.57
2023-05-21T21:50:29.708Z,14.40
2023-05-21T21:53:31.855Z,15.32
2023-05-21T21:56:33.965Z,12.63
2023-05-21T21:59:39.199Z,14.02
2023-05-21T22:02:42.201Z,12.73
2023-05-21T22:05:44.615Z,15.82
2023-05-21T22:08:46.879Z,13.45
2023-05-21T22:11:49.247Z,13.35
2023-05-21T22:14:51.357Z,15.93
2023-05-21T22:17:53.631Z,14.52
2023-05-21T22:20:55.919Z,14.30
2023-05-21T22:23:58.218Z,14.15
2023-05-21T22:27:00.613Z,18.98
2023-05-21T22:30:03.657Z,15.13
2023-05-21T22:33:06.275Z,18.58
2023-05-21T22:36:08.718Z,18.27
2023-05-21T22:39:10.926Z,13.85
2023-05-21T22:42:13.131Z,12.80
2023-05-21T22:45:15.982Z,16.58
2023-05-21T22:48:18.279Z,18.02
2023-05-21T22:51:20.409Z,17.55
2023-05-21T22:54:22.781Z,16.98
2023-05-21T22:57:24.899Z,17.17
2023-05-21T23:00:27.364Z,17.77
2023-05-21T23:03:29.597Z,15.50
2023-05-21T23:06:31.825Z,17.95
2023-05-21T23:09:33.984Z,15.93
2023-05-21T23:12:37.320Z,16.05
2023-05-21T23:15:39.412Z,16.13
2023-05-21T23:18:41.579Z,20.05
2023-05-21T23:21:43.914Z,19.60
2023-05-21T23:24:46.206Z,19.48
2023-05-21T23:27:48.376Z,17.50
2023-05-21T23:30:51.055Z,21.70
2023-05-21T23:33:53.168Z,18.60
2023-05-21T23:36:55.912Z,17.75
2023-05-21T23:39:59.047Z,17.35
2023-05-21T23:43:01.409Z,19.83
2023-05-21T23:46:03.638Z,17.52
2023-05-21T23:49:05.739Z,17.42
2023-05-21T23:52:08.154Z,20.67
2023-05-21T23:55:12.679Z,20.38
2023-05-21T23:58:14.773Z,20.80
